sensor_id;sensor_type;location;lat;lon;timestamp;pressure;altitude;pressure_sealevel;temperature;humidity
29467;BME280;60968;37.490;-122.288;2023-02-19T00:00:47;98830.19;;;15.23;25.10
29467;BME280;60968;37.490;-122.288;2023-02-19T00:03:50;98833.81;;;15.19;26.28
29467;BME280;60968;37.490;-122.288;2023-02-19T00:06:55;98825.44;;;15.09;24.95
29467;BME280;60968;37.490;-122.288;2023-02-19T00:09:55;98821.25;;;15.03;26.67
29467;BME280;60968;37.490;-122.288;2023-02-19T00:12:59;98820.75;;;14.94;26.54
29467;BME280;60968;37.490;-122.288;2023-02-19T00:16:08;98824.47;;;14.86;26.55
29467;BME280;60968;37.490;-122.288;2023-02-19T00:19:13;98814.25;;;14.79;26.87
29467;BME280;60968;37.490;-122.288;2023-02-19T00:22:15;98816.22;;;14.72;27.30
29467;BME280;60968;37.490;-122.288;2023-02-19T00:25:16;98809.56;;;14.62;28.10
29467;BME280;60968;37.490;-122.288;2023-02-19T00:28:18;98807.28;;;14.51;28.52
29467;BME280;60968;37.490;-122.288;2023-02-19T00:31:30;98800.69;;;14.39;27.78
29467;BME280;60968;37.490;-122.288;2023-02-19T00:34:34;98794.84;;;14.31;26.59
29467;BME280;60968;37.490;-122.288;2023-02-19T00:37:35;98799.31;;;14.27;24.42
29467;BME280;60968;37.490;-122.288;2023-02-19T00:40:38;98805.50;;;14.24;24.09
29467;BME280;60968;37.490;-122.288;2023-02-19T00:43:39;98808.41;;;14.17;27.50
29467;BME280;60968;37.490;-122.288;2023-02-19T00:46:43;98805.16;;;14.09;27.25
29467;BME280;60968;37.490;-122.288;2023-02-19T00:49:48;98810.72;;;13.98;28.44
29467;BME280;60968;37.490;-122.288;2023-02-19T00:52:48;98825.84;;;13.89;28.49
29467;BME280;60968;37.490;-122.288;2023-02-19T00:55:50;98824.19;;;13.87;26.92
29467;BME280;60968;37.490;-122.288;2023-02-19T00:58:52;98832.09;;;13.85;28.48
29467;BME280;60968;37.490;-122.288;2023-02-19T01:01:56;98841.97;;;13.76;28.03
29467;BME280;60968;37.490;-122.288;2023-02-19T01:04:57;98853.66;;;13.64;28.77
29467;BME280;60968;37.490;-122.288;2023-02-19T01:07:58;98864.44;;;13.53;29.88
29467;BME280;60968;37.490;-122.288;2023-02-19T01:11:05;98869.09;;;13.42;29.78
29467;BME280;60968;37.490;-122.288;2023-02-19T01:14:07;98872.00;;;13.31;30.67
29467;BME280;60968;37.490;-122.288;2023-02-19T01:17:11;98870.56;;;13.19;31.13
29467;BME280;60968;37.490;-122.288;2023-02-19T01:20:13;98873.41;;;13.11;32.81
29467;BME280;60968;37.490;-122.288;2023-02-19T01:23:17;98872.88;;;12.98;35.24
29467;BME280;60968;37.490;-122.288;2023-02-19T01:26:29;98879.22;;;12.88;37.37
29467;BME280;60968;37.490;-122.288;2023-02-19T01:29:30;98883.00;;;12.76;38.71
29467;BME280;60968;37.490;-122.288;2023-02-19T01:32:32;98881.53;;;12.66;40.78
29467;BME280;60968;37.490;-122.288;2023-02-19T01:35:33;98884.50;;;12.52;42.77
29467;BME280;60968;37.490;-122.288;2023-02-19T01:38:41;98888.34;;;12.35;43.81
29467;BME280;60968;37.490;-122.288;2023-02-19T01:41:43;98885.09;;;12.26;44.23
29467;BME280;60968;37.490;-122.288;2023-02-19T01:48:29;98892.50;;;12.05;47.18
29467;BME280;60968;37.490;-122.288;2023-02-19T01:51:38;98891.84;;;11.97;49.21
29467;BME280;60968;37.490;-122.288;2023-02-19T01:54:43;98894.56;;;11.89;51.54
29467;BME280;60968;37.490;-122.288;2023-02-19T01:57:48;98911.16;;;11.87;52.85
29467;BME280;60968;37.490;-122.288;2023-02-19T02:00:51;98905.19;;;11.81;53.42
29467;BME280;60968;37.490;-122.288;2023-02-19T02:03:52;98916.59;;;11.77;52.86
29467;BME280;60968;37.490;-122.288;2023-02-19T02:06:59;98918.34;;;11.75;52.66
29467;BME280;60968;37.490;-122.288;2023-02-19T02:10:03;98906.28;;;11.70;51.34
29467;BME280;60968;37.490;-122.288;2023-02-19T02:13:05;98902.94;;;11.63;50.41
29467;BME280;60968;37.490;-122.288;2023-02-19T02:16:28;98904.78;;;11.58;49.36
29467;BME280;60968;37.490;-122.288;2023-02-19T02:27:03;98904.25;;;11.40;46.55
29467;BME280;60968;37.490;-122.288;2023-02-19T02:30:37;98908.69;;;11.37;46.01
29467;BME280;60968;37.490;-122.288;2023-02-19T02:37:00;98896.19;;;11.07;49.02
29467;BME280;60968;37.490;-122.288;2023-02-19T02:40:07;98895.53;;;10.94;50.58
29467;BME280;60968;37.490;-122.288;2023-02-19T02:43:11;98886.09;;;10.87;52.49
29467;BME280;60968;37.490;-122.288;2023-02-19T02:46:20;98873.13;;;10.82;51.36
29467;BME280;60968;37.490;-122.288;2023-02-19T02:49:24;98869.69;;;10.82;51.13
29467;BME280;60968;37.490;-122.288;2023-02-19T02:52:28;98867.16;;;10.77;51.73
29467;BME280;60968;37.490;-122.288;2023-02-19T02:55:35;98874.13;;;10.75;51.80
29467;BME280;60968;37.490;-122.288;2023-02-19T03:02:23;98884.00;;;10.58;53.15
29467;BME280;60968;37.490;-122.288;2023-02-19T03:05:24;98889.25;;;10.55;53.50
29467;BME280;60968;37.490;-122.288;2023-02-19T03:08:44;98900.66;;;10.46;52.42
29467;BME280;60968;37.490;-122.288;2023-02-19T03:11:51;98909.38;;;10.43;48.71
29467;BME280;60968;37.490;-122.288;2023-02-19T03:14:54;98905.84;;;10.47;47.53
29467;BME280;60968;37.490;-122.288;2023-02-19T03:18:00;98894.66;;;10.42;47.90
29467;BME280;60968;37.490;-122.288;2023-02-19T03:21:05;98885.94;;;10.43;45.33
29467;BME280;60968;37.490;-122.288;2023-02-19T03:24:10;98891.03;;;10.51;43.17
29467;BME280;60968;37.490;-122.288;2023-02-19T03:27:16;98896.34;;;10.45;43.66
29467;BME280;60968;37.490;-122.288;2023-02-19T03:30:23;98898.19;;;10.38;41.47
29467;BME280;60968;37.490;-122.288;2023-02-19T03:33:27;98904.09;;;10.50;39.51
29467;BME280;60968;37.490;-122.288;2023-02-19T03:36:36;98903.16;;;10.54;39.11
29467;BME280;60968;37.490;-122.288;2023-02-19T03:39:40;98908.22;;;10.61;40.39
29467;BME280;60968;37.490;-122.288;2023-02-19T03:43:08;98911.69;;;10.63;38.53
29467;BME280;60968;37.490;-122.288;2023-02-19T03:50:26;98905.78;;;10.52;41.25
29467;BME280;60968;37.490;-122.288;2023-02-19T03:53:41;98921.63;;;10.38;41.13
29467;BME280;60968;37.490;-122.288;2023-02-19T04:00:22;98942.22;;;10.55;39.15
29467;BME280;60968;37.490;-122.288;2023-02-19T04:03:45;98940.25;;;10.68;38.65
29467;BME280;60968;37.490;-122.288;2023-02-19T04:06:56;98945.47;;;10.68;39.61
29467;BME280;60968;37.490;-122.288;2023-02-19T04:10:01;98960.38;;;10.60;39.40
29467;BME280;60968;37.490;-122.288;2023-02-19T04:13:11;98956.78;;;10.67;39.04
29467;BME280;60968;37.490;-122.288;2023-02-19T04:16:23;98958.66;;;10.57;39.17
29467;BME280;60968;37.490;-122.288;2023-02-19T04:19:28;98951.13;;;10.39;40.36
29467;BME280;60968;37.490;-122.288;2023-02-19T04:22:30;98960.91;;;10.20;41.07
29467;BME280;60968;37.490;-122.288;2023-02-19T04:25:32;98968.84;;;10.10;42.36
29467;BME280;60968;37.490;-122.288;2023-02-19T04:28:38;98972.38;;;10.05;42.79
29467;BME280;60968;37.490;-122.288;2023-02-19T04:31:40;98978.53;;;9.99;42.88
29467;BME280;60968;37.490;-122.288;2023-02-19T04:34:43;98977.72;;;9.92;43.86
29467;BME280;60968;37.490;-122.288;2023-02-19T04:37:45;98980.31;;;9.94;43.21
29467;BME280;60968;37.490;-122.288;2023-02-19T04:40:50;98982.97;;;9.91;44.57
29467;BME280;60968;37.490;-122.288;2023-02-19T04:43:51;98979.59;;;9.81;44.23
29467;BME280;60968;37.490;-122.288;2023-02-19T04:46:53;98976.19;;;9.74;44.85
29467;BME280;60968;37.490;-122.288;2023-02-19T04:49:55;98986.69;;;9.68;45.06
29467;BME280;60968;37.490;-122.288;2023-02-19T04:52:55;98991.06;;;9.63;45.55
29467;BME280;60968;37.490;-122.288;2023-02-19T04:56:04;98991.22;;;9.51;46.75
29467;BME280;60968;37.490;-122.288;2023-02-19T04:59:05;98999.13;;;9.40;46.30
29467;BME280;60968;37.490;-122.288;2023-02-19T05:02:06;99006.09;;;9.33;45.84
29467;BME280;60968;37.490;-122.288;2023-02-19T05:05:08;99011.31;;;9.32;46.25
29467;BME280;60968;37.490;-122.288;2023-02-19T05:08:09;99014.00;;;9.25;46.56
29467;BME280;60968;37.490;-122.288;2023-02-19T05:11:11;99008.00;;;9.16;46.99
29467;BME280;60968;37.490;-122.288;2023-02-19T05:14:14;99004.53;;;9.14;47.61
29467;BME280;60968;37.490;-122.288;2023-02-19T05:17:17;99015.81;;;9.14;47.57
29467;BME280;60968;37.490;-122.288;2023-02-19T05:20:20;99010.66;;;9.08;48.18
29467;BME280;60968;37.490;-122.288;2023-02-19T05:23:22;99009.84;;;9.00;48.41
29467;BME280;60968;37.490;-122.288;2023-02-19T05:26:23;99018.53;;;8.99;48.79
29467;BME280;60968;37.490;-122.288;2023-02-19T05:29:25;99024.63;;;8.96;49.44
29467;BME280;60968;37.490;-122.288;2023-02-19T05:32:27;99015.09;;;8.95;48.61
29467;BME280;60968;37.490;-122.288;2023-02-19T05:35:28;99016.81;;;8.96;49.40
29467;BME280;60968;37.490;-122.288;2023-02-19T05:38:29;99021.16;;;8.99;48.88
29467;BME280;60968;37.490;-122.288;2023-02-19T05:41:33;99030.63;;;9.00;48.32
29467;BME280;60968;37.490;-122.288;2023-02-19T05:44:35;99032.41;;;8.98;49.19
29467;BME280;60968;37.490;-122.288;2023-02-19T05:47:36;99041.91;;;9.00;49.18
29467;BME280;60968;37.490;-122.288;2023-02-19T05:50:38;99041.03;;;9.01;48.13
29467;BME280;60968;37.490;-122.288;2023-02-19T05:53:42;99038.44;;;9.04;46.85
29467;BME280;60968;37.490;-122.288;2023-02-19T05:56:44;99039.22;;;9.09;46.84
29467;BME280;60968;37.490;-122.288;2023-02-19T05:59:49;99041.00;;;9.06;46.90
29467;BME280;60968;37.490;-122.288;2023-02-19T06:02:53;99052.19;;;9.16;46.14
29467;BME280;60968;37.490;-122.288;2023-02-19T06:05:53;99049.56;;;9.20;46.54
29467;BME280;60968;37.490;-122.288;2023-02-19T06:09:00;99045.19;;;9.24;46.55
29467;BME280;60968;37.490;-122.288;2023-02-19T06:12:07;99044.41;;;9.13;47.22
29467;BME280;60968;37.490;-122.288;2023-02-19T06:15:08;99040.22;;;8.91;48.56
29467;BME280;60968;37.490;-122.288;2023-02-19T06:18:10;99036.94;;;8.69;50.55
29467;BME280;60968;37.490;-122.288;2023-02-19T06:21:13;99030.06;;;8.57;51.52
29467;BME280;60968;37.490;-122.288;2023-02-19T06:24:15;99030.97;;;8.44;52.03
29467;BME280;60968;37.490;-122.288;2023-02-19T06:27:16;99044.84;;;8.40;53.50
29467;BME280;60968;37.490;-122.288;2023-02-19T06:30:19;99045.66;;;8.44;53.29
29467;BME280;60968;37.490;-122.288;2023-02-19T06:33:23;99049.13;;;8.50;53.41
29467;BME280;60968;37.490;-122.288;2023-02-19T06:36:24;99042.19;;;8.55;53.62
29467;BME280;60968;37.490;-122.288;2023-02-19T06:39:26;99045.63;;;8.59;52.63
29467;BME280;60968;37.490;-122.288;2023-02-19T06:42:30;99049.94;;;8.62;52.50
29467;BME280;60968;37.490;-122.288;2023-02-19T06:45:31;99060.34;;;8.62;52.60
29467;BME280;60968;37.490;-122.288;2023-02-19T06:48:33;99054.25;;;8.67;50.60
29467;BME280;60968;37.490;-122.288;2023-02-19T06:51:34;99065.50;;;8.69;50.79
29467;BME280;60968;37.490;-122.288;2023-02-19T06:54:39;99063.75;;;8.70;49.90
29467;BME280;60968;37.490;-122.288;2023-02-19T06:57:39;99058.50;;;8.79;50.05
29467;BME280;60968;37.490;-122.288;2023-02-19T07:00:42;99064.53;;;8.83;50.72
29467;BME280;60968;37.490;-122.288;2023-02-19T07:03:43;99057.59;;;8.86;51.25
29467;BME280;60968;37.490;-122.288;2023-02-19T07:06:46;99055.88;;;8.84;52.00
29467;BME280;60968;37.490;-122.288;2023-02-19T07:09:47;99053.28;;;8.82;51.42
29467;BME280;60968;37.490;-122.288;2023-02-19T07:12:48;99061.13;;;8.73;52.63
29467;BME280;60968;37.490;-122.288;2023-02-19T07:15:50;99057.75;;;8.60;53.82
29467;BME280;60968;37.490;-122.288;2023-02-19T07:18:51;99053.47;;;8.42;55.59
29467;BME280;60968;37.490;-122.288;2023-02-19T07:21:54;99053.56;;;8.23;56.44
29467;BME280;60968;37.490;-122.288;2023-02-19T07:24:55;99059.66;;;8.07;56.79
29467;BME280;60968;37.490;-122.288;2023-02-19T07:27:56;99057.97;;;7.98;57.42
29467;BME280;60968;37.490;-122.288;2023-02-19T07:31:02;99057.97;;;7.98;56.92
29467;BME280;60968;37.490;-122.288;2023-02-19T07:34:03;99064.03;;;7.96;57.61
29467;BME280;60968;37.490;-122.288;2023-02-19T07:37:04;99065.75;;;8.04;56.39
29467;BME280;60968;37.490;-122.288;2023-02-19T07:40:05;99060.56;;;8.00;56.94
29467;BME280;60968;37.490;-122.288;2023-02-19T07:43:09;99058.84;;;7.96;57.58
29467;BME280;60968;37.490;-122.288;2023-02-19T07:46:12;99065.75;;;7.97;56.47
29467;BME280;60968;37.490;-122.288;2023-02-19T07:49:14;99073.53;;;8.00;56.57
29467;BME280;60968;37.490;-122.288;2023-02-19T07:52:15;99067.44;;;8.08;55.40
29467;BME280;60968;37.490;-122.288;2023-02-19T07:55:16;99075.22;;;8.08;57.09
29467;BME280;60968;37.490;-122.288;2023-02-19T07:58:18;99071.81;;;8.03;56.67
29467;BME280;60968;37.490;-122.288;2023-02-19T08:01:21;99064.03;;;8.00;56.70
29467;BME280;60968;37.490;-122.288;2023-02-19T08:04:22;99061.44;;;7.93;57.49
29467;BME280;60968;37.490;-122.288;2023-02-19T08:07:29;99046.75;;;7.88;57.11
29467;BME280;60968;37.490;-122.288;2023-02-19T08:10:41;99038.13;;;7.85;56.97
29467;BME280;60968;37.490;-122.288;2023-02-19T08:13:42;99021.69;;;7.83;56.54
29467;BME280;60968;37.490;-122.288;2023-02-19T08:16:51;99022.56;;;7.82;57.18
29467;BME280;60968;37.490;-122.288;2023-02-19T08:19:58;99029.50;;;7.73;56.79
29467;BME280;60968;37.490;-122.288;2023-02-19T08:22:59;99043.34;;;7.68;56.58
29467;BME280;60968;37.490;-122.288;2023-02-19T08:26:00;99045.94;;;7.63;56.81
29467;BME280;60968;37.490;-122.288;2023-02-19T08:29:04;99052.88;;;7.61;57.07
29467;BME280;60968;37.490;-122.288;2023-02-19T08:32:07;99041.63;;;7.65;56.40
29467;BME280;60968;37.490;-122.288;2023-02-19T08:35:09;99027.78;;;7.65;56.06
29467;BME280;60968;37.490;-122.288;2023-02-19T08:38:22;99018.28;;;7.62;55.78
29467;BME280;60968;37.490;-122.288;2023-02-19T08:41:24;99026.06;;;7.61;55.79
29467;BME280;60968;37.490;-122.288;2023-02-19T08:44:25;99030.41;;;7.57;56.10
29467;BME280;60968;37.490;-122.288;2023-02-19T08:47:29;99020.91;;;7.53;56.40
29467;BME280;60968;37.490;-122.288;2023-02-19T08:50:30;99012.25;;;7.46;56.31
29467;BME280;60968;37.490;-122.288;2023-02-19T08:53:33;99018.31;;;7.44;56.43
29467;BME280;60968;37.490;-122.288;2023-02-19T08:56:37;99022.63;;;7.46;57.69
29467;BME280;60968;37.490;-122.288;2023-02-19T08:59:39;99016.59;;;7.47;56.85
29467;BME280;60968;37.490;-122.288;2023-02-19T09:02:41;99027.81;;;7.55;56.39
29467;BME280;60968;37.490;-122.288;2023-02-19T09:05:44;99038.16;;;7.69;56.68
29467;BME280;60968;37.490;-122.288;2023-02-19T09:08:46;99047.66;;;7.77;56.34
29467;BME280;60968;37.490;-122.288;2023-02-19T09:11:48;99059.75;;;7.76;56.26
29467;BME280;60968;37.490;-122.288;2023-02-19T09:14:50;99058.03;;;7.73;56.00
29467;BME280;60968;37.490;-122.288;2023-02-19T09:17:52;99060.63;;;7.64;55.29
29467;BME280;60968;37.490;-122.288;2023-02-19T09:20:54;99065.81;;;7.66;56.17
29467;BME280;60968;37.490;-122.288;2023-02-19T09:23:59;99059.78;;;7.65;56.46
29467;BME280;60968;37.490;-122.288;2023-02-19T09:27:02;99064.94;;;7.62;56.68
29467;BME280;60968;37.490;-122.288;2023-02-19T09:30:05;99062.38;;;7.56;56.99
29467;BME280;60968;37.490;-122.288;2023-02-19T09:33:06;99063.22;;;7.55;56.22
29467;BME280;60968;37.490;-122.288;2023-02-19T09:36:07;99053.75;;;7.57;56.22
29467;BME280;60968;37.490;-122.288;2023-02-19T09:39:08;99052.00;;;7.54;55.68
29467;BME280;60968;37.490;-122.288;2023-02-19T09:49:34;99057.22;;;7.48;54.76
29467;BME280;60968;37.490;-122.288;2023-02-19T09:52:47;99058.06;;;7.47;55.37
29467;BME280;60968;37.490;-122.288;2023-02-19T09:55:53;99044.25;;;7.41;55.03
29467;BME280;60968;37.490;-122.288;2023-02-19T09:58:56;99037.31;;;7.39;55.44
29467;BME280;60968;37.490;-122.288;2023-02-19T10:02:24;99033.03;;;7.38;56.25
29467;BME280;60968;37.490;-122.288;2023-02-19T10:05:26;99027.84;;;7.40;56.26
29467;BME280;60968;37.490;-122.288;2023-02-19T10:08:34;99023.50;;;7.39;57.67
29467;BME280;60968;37.490;-122.288;2023-02-19T10:11:36;99023.50;;;7.39;58.21
29467;BME280;60968;37.490;-122.288;2023-02-19T10:14:43;99023.53;;;7.34;58.38
29467;BME280;60968;37.490;-122.288;2023-02-19T10:17:49;99021.78;;;7.32;60.13
29467;BME280;60968;37.490;-122.288;2023-02-19T10:20:51;99036.47;;;7.34;63.01
29467;BME280;60968;37.490;-122.288;2023-02-19T10:23:58;99045.97;;;7.46;62.25
29467;BME280;60968;37.490;-122.288;2023-02-19T10:27:01;99045.97;;;7.38;63.52
29467;BME280;60968;37.490;-122.288;2023-02-19T10:30:04;99033.03;;;7.40;65.01
29467;BME280;60968;37.490;-122.288;2023-02-19T10:39:40;99036.47;;;7.48;67.93
29467;BME280;60968;37.490;-122.288;2023-02-19T10:43:01;99034.75;;;7.33;68.72
29467;BME280;60968;37.490;-122.288;2023-02-19T10:46:27;99016.59;;;7.18;70.04
29467;BME280;60968;37.490;-122.288;2023-02-19T10:49:39;99010.56;;;6.99;69.47
29467;BME280;60968;37.490;-122.288;2023-02-19T10:52:42;99005.38;;;6.88;68.04
29467;BME280;60968;37.490;-122.288;2023-02-19T10:55:44;99002.81;;;6.88;65.71
29467;BME280;60968;37.490;-122.288;2023-02-19T10:58:46;98999.34;;;6.92;65.60
29467;BME280;60968;37.490;-122.288;2023-02-19T11:02:02;98996.75;;;6.94;65.82
29467;BME280;60968;37.490;-122.288;2023-02-19T11:05:16;98995.88;;;6.90;65.28
29467;BME280;60968;37.490;-122.288;2023-02-19T11:08:22;98995.03;;;6.90;64.74
29467;BME280;60968;37.490;-122.288;2023-02-19T11:11:35;99003.66;;;6.92;64.54
29467;BME280;60968;37.490;-122.288;2023-02-19T11:14:44;98997.63;;;6.90;64.09
29467;BME280;60968;37.490;-122.288;2023-02-19T11:17:45;99001.91;;;6.86;63.99
29467;BME280;60968;37.490;-122.288;2023-02-19T11:24:01;99006.22;;;6.72;62.26
29467;BME280;60968;37.490;-122.288;2023-02-19T11:27:05;99001.06;;;6.65;65.46
29467;BME280;60968;37.490;-122.288;2023-02-19T11:30:37;98998.44;;;6.62;65.78
29467;BME280;60968;37.490;-122.288;2023-02-19T11:33:49;98995.84;;;6.61;66.02
29467;BME280;60968;37.490;-122.288;2023-02-19T11:37:13;98985.50;;;6.61;64.99
29467;BME280;60968;37.490;-122.288;2023-02-19T11:40:16;98977.72;;;6.62;63.79
29467;BME280;60968;37.490;-122.288;2023-02-19T11:43:41;98987.22;;;6.60;62.91
29467;BME280;60968;37.490;-122.288;2023-02-19T11:50:45;98998.44;;;6.75;60.48
29467;BME280;60968;37.490;-122.288;2023-02-19T11:54:04;99002.78;;;6.76;60.37
29467;BME280;60968;37.490;-122.288;2023-02-19T12:38:23;99001.03;;;6.61;58.40
29467;BME280;60968;37.490;-122.288;2023-02-19T12:44:49;99019.19;;;6.81;56.84
29467;BME280;60968;37.490;-122.288;2023-02-19T12:48:28;99018.34;;;6.85;56.27
29467;BME280;60968;37.490;-122.288;2023-02-19T12:54:40;99012.25;;;6.72;57.97
29467;BME280;60968;37.490;-122.288;2023-02-19T12:57:42;99006.22;;;6.72;57.34
29467;BME280;60968;37.490;-122.288;2023-02-19T13:00:48;99008.81;;;6.68;57.49
29467;BME280;60968;37.490;-122.288;2023-02-19T13:07:44;99002.75;;;6.63;57.04
29467;BME280;60968;37.490;-122.288;2023-02-19T13:11:12;98998.44;;;6.62;57.60
29467;BME280;60968;37.490;-122.288;2023-02-19T13:17:49;98989.78;;;6.52;58.03
29467;BME280;60968;37.490;-122.288;2023-02-19T13:20:51;99001.03;;;6.50;58.02
29467;BME280;60968;37.490;-122.288;2023-02-19T13:23:54;99007.94;;;6.54;58.81
29467;BME280;60968;37.490;-122.288;2023-02-19T13:37:11;99026.03;;;6.49;58.51
29467;BME280;60968;37.490;-122.288;2023-02-19T13:40:34;99023.44;;;6.51;57.52
29467;BME280;60968;37.490;-122.288;2023-02-19T13:43:36;99031.19;;;6.46;59.04
29467;BME280;60968;37.490;-122.288;2023-02-19T13:46:41;99032.03;;;6.41;59.85
29467;BME280;60968;37.490;-122.288;2023-02-19T13:49:47;99026.88;;;6.38;59.32
29467;BME280;60968;37.490;-122.288;2023-02-19T13:52:53;99026.88;;;6.34;59.79
29467;BME280;60968;37.490;-122.288;2023-02-19T13:55:56;99024.25;;;6.31;59.85
29467;BME280;60968;37.490;-122.288;2023-02-19T13:59:32;99028.56;;;6.29;60.03
29467;BME280;60968;37.490;-122.288;2023-02-19T14:02:34;99024.25;;;6.28;59.72
29467;BME280;60968;37.490;-122.288;2023-02-19T14:05:58;99025.97;;;6.31;59.81
29467;BME280;60968;37.490;-122.288;2023-02-19T14:09:00;99037.19;;;6.28;60.05
29467;BME280;60968;37.490;-122.288;2023-02-19T14:12:20;99026.81;;;6.31;59.18
29467;BME280;60968;37.490;-122.288;2023-02-19T14:15:42;99030.28;;;6.30;59.48
29467;BME280;60968;37.490;-122.288;2023-02-19T14:18:45;99032.00;;;6.27;59.38
29467;BME280;60968;37.490;-122.288;2023-02-19T14:21:45;99037.19;;;6.30;60.21
29467;BME280;60968;37.490;-122.288;2023-02-19T14:24:52;99044.94;;;6.30;59.62
29467;BME280;60968;37.490;-122.288;2023-02-19T14:31:31;99038.91;;;6.35;58.97
29467;BME280;60968;37.490;-122.288;2023-02-19T14:34:33;99051.84;;;6.32;58.53
29467;BME280;60968;37.490;-122.288;2023-02-19T14:37:35;99057.88;;;6.27;59.72
29467;BME280;60968;37.490;-122.288;2023-02-19T14:40:39;99063.88;;;6.21;60.13
29467;BME280;60968;37.490;-122.288;2023-02-19T14:43:44;99070.78;;;6.17;61.25
29467;BME280;60968;37.490;-122.288;2023-02-19T14:57:57;99061.28;;;6.12;59.89
29467;BME280;60968;37.490;-122.288;2023-02-19T15:01:00;99053.53;;;6.20;59.90
29467;BME280;60968;37.490;-122.288;2023-02-19T15:04:03;99052.69;;;6.27;58.02
29467;BME280;60968;37.490;-122.288;2023-02-19T15:07:12;99052.75;;;6.39;59.21
29467;BME280;60968;37.490;-122.288;2023-02-19T15:10:15;99056.22;;;6.49;59.45
29467;BME280;60968;37.490;-122.288;2023-02-19T15:13:20;99058.81;;;6.57;59.43
29467;BME280;60968;37.490;-122.288;2023-02-19T15:16:25;99058.88;;;6.67;58.89
29467;BME280;60968;37.490;-122.288;2023-02-19T15:19:31;99057.16;;;6.76;58.91
29467;BME280;60968;37.490;-122.288;2023-02-19T15:22:33;99064.09;;;6.91;58.94
29467;BME280;60968;37.490;-122.288;2023-02-19T15:25:37;99058.94;;;7.14;56.39
29467;BME280;60968;37.490;-122.288;2023-02-19T15:28:55;99068.44;;;7.35;56.19
29467;BME280;60968;37.490;-122.288;2023-02-19T15:31:59;99072.75;;;7.45;57.20
29467;BME280;60968;37.490;-122.288;2023-02-19T15:35:05;99066.69;;;7.57;54.89
29467;BME280;60968;37.490;-122.288;2023-02-19T15:38:10;99074.47;;;7.68;54.14
29467;BME280;60968;37.490;-122.288;2023-02-19T15:41:20;99072.72;;;7.82;54.79
29467;BME280;60968;37.490;-122.288;2023-02-19T15:44:59;99069.22;;;7.93;53.81
29467;BME280;60968;37.490;-122.288;2023-02-19T15:51:11;99081.22;;;8.31;50.96
29467;BME280;60968;37.490;-122.288;2023-02-19T15:54:21;99075.94;;;8.57;50.16
29467;BME280;60968;37.490;-122.288;2023-02-19T15:57:43;99071.41;;;8.96;47.03
29467;BME280;60968;37.490;-122.288;2023-02-19T16:01:09;99082.50;;;9.20;46.73
29467;BME280;60968;37.490;-122.288;2023-02-19T16:04:14;99079.75;;;9.34;46.40
29467;BME280;60968;37.490;-122.288;2023-02-19T16:07:41;99083.16;;;9.47;47.34
29467;BME280;60968;37.490;-122.288;2023-02-19T16:11:01;99099.38;;;9.73;60.14
29467;BME280;60968;37.490;-122.288;2023-02-19T16:14:34;99104.72;;;9.59;69.62
29467;BME280;60968;37.490;-122.288;2023-02-19T16:17:41;99103.97;;;9.47;69.39
29467;BME280;60968;37.490;-122.288;2023-02-19T16:20:47;99110.88;;;9.51;69.64
29467;BME280;60968;37.490;-122.288;2023-02-19T16:23:56;99113.44;;;9.54;66.29
29467;BME280;60968;37.490;-122.288;2023-02-19T16:26:59;99107.06;;;9.87;54.71
29467;BME280;60968;37.490;-122.288;2023-02-19T16:33:42;99109.19;;;10.37;51.35
29467;BME280;60968;37.490;-122.288;2023-02-19T16:36:43;99114.28;;;10.44;47.80
29467;BME280;60968;37.490;-122.288;2023-02-19T16:39:43;99108.91;;;10.58;52.35
29467;BME280;60968;37.490;-122.288;2023-02-19T16:45:53;99124.25;;;10.81;55.29
29467;BME280;60968;37.490;-122.288;2023-02-19T16:48:53;99129.06;;;11.09;50.39
29467;BME280;60968;37.490;-122.288;2023-02-19T16:51:54;99126.28;;;11.22;52.03
29467;BME280;60968;37.490;-122.288;2023-02-19T16:54:57;99134.91;;;11.27;56.40
29467;BME280;60968;37.490;-122.288;2023-02-19T17:01:17;99139.19;;;11.86;57.40
29467;BME280;60968;37.490;-122.288;2023-02-19T17:04:18;99132.75;;;15.55;46.71
29467;BME280;60968;37.490;-122.288;2023-02-19T17:07:20;99117.88;;;19.48;41.10
29467;BME280;60968;37.490;-122.288;2023-02-19T17:10:27;99114.59;;;20.97;34.90
29467;BME280;60968;37.490;-122.288;2023-02-19T17:13:33;99112.31;;;22.00;33.45
29467;BME280;60968;37.490;-122.288;2023-02-19T17:16:35;99119.56;;;22.26;30.64
29467;BME280;60968;37.490;-122.288;2023-02-19T17:19:36;99122.84;;;23.44;30.80
29467;BME280;60968;37.490;-122.288;2023-02-19T17:22:37;99114.75;;;24.26;28.03
29467;BME280;60968;37.490;-122.288;2023-02-19T17:25:39;99113.13;;;24.10;28.29
29467;BME280;60968;37.490;-122.288;2023-02-19T17:28:39;99130.81;;;24.89;26.96
29467;BME280;60968;37.490;-122.288;2023-02-19T17:31:40;99117.44;;;24.64;25.84
29467;BME280;60968;37.490;-122.288;2023-02-19T17:34:41;99115.22;;;24.95;25.74
29467;BME280;60968;37.490;-122.288;2023-02-19T17:37:42;99112.66;;;25.31;26.88
29467;BME280;60968;37.490;-122.288;2023-02-19T17:40:43;99114.72;;;25.51;25.92
29467;BME280;60968;37.490;-122.288;2023-02-19T17:43:45;99128.03;;;24.90;26.20
29467;BME280;60968;37.490;-122.288;2023-02-19T17:46:46;99123.72;;;25.00;27.29
29467;BME280;60968;37.490;-122.288;2023-02-19T17:49:47;99119.31;;;24.11;26.31
29467;BME280;60968;37.490;-122.288;2023-02-19T17:52:48;99132.00;;;24.72;26.39
29467;BME280;60968;37.490;-122.288;2023-02-19T17:55:49;99128.25;;;23.97;26.81
29467;BME280;60968;37.490;-122.288;2023-02-19T17:58:50;99136.31;;;21.52;29.91
29467;BME280;60968;37.490;-122.288;2023-02-19T18:01:53;99150.41;;;19.12;32.87
29467;BME280;60968;37.490;-122.288;2023-02-19T18:04:54;99157.34;;;17.72;35.53
29467;BME280;60968;37.490;-122.288;2023-02-19T18:07:56;99154.25;;;16.94;36.12
29467;BME280;60968;37.490;-122.288;2023-02-19T18:10:57;99154.16;;;16.72;37.53